Terminal Aerodrome Forecast
Issued by NWS Jackson, KY

Home | Current Version | Previous Version | Text Only | Print | Product List | Glossary On
Versions: 1 2 3 4 5 6 7 8 9 10 11 12 13 14 15 16 17
000
FTUS43 KJKL 160409 AAA
TAFJKL
TAF AMD
KJKL 160409Z 1604/1624 22008G19KT P6SM OVC040
     FM160600 23011G19KT P6SM VCSH OVC020
     FM160800 23012G20KT 4SM -SHRA BR OVC015
     FM161200 27010KT 3SM SHRA BR OVC010
     FM161400 30009KT 3SM SHRA BR OVC008
     FM162100 33007KT P6SM OVC010=

USA.gov is the U.S. government's official web portal to all federal, state and local government web resources and services.